THY5838 LTAC-LTBH
Flight info
| Callsign | THY5838 |
|---|---|
| Flight time | 1h 6m |
| Altitude | 30000 |
| Route | YAVR1D YAVRU UL615 ERSEN UA4 NUMSO UL615 BKZ UN604 BIG BIG1K |
| Aircraft | A320/M-SDE/C |
Departure
| Time | 2026-04-21 07:42 |
|---|---|
| Airport | Esenboğa International Airport (LTAC) |
Arrival
| Time | 2026-04-21 08:48 |
|---|---|
| Airport | Çanakkale Airport (LTBH) |
| Time | Latitude | Longitude | Altitude | Speed | Heading |
|---|---|---|---|---|---|
| 2026-04-21 07:25 | 40.11443 | 32.98901 | 3095 ft | 0 kts | 162° |
| 2026-04-21 07:33 | 40.11454 | 32.98897 | 3099 ft | 2 kts | 162° |
| 2026-04-21 07:33 | 40.11470 | 32.98891 | 3098 ft | 2 kts | 199° |
| 2026-04-21 07:34 | 40.11481 | 32.98902 | 3096 ft | 0 kts | 253° |
| 2026-04-21 07:34 | 40.11479 | 32.98891 | 3101 ft | 2 kts | 258° |
| 2026-04-21 07:34 | 40.11483 | 32.98860 | 3099 ft | 6 kts | 294° |
| 2026-04-21 07:34 | 40.11513 | 32.98868 | 3095 ft | 8 kts | 33° |
| 2026-04-21 07:35 | 40.11576 | 32.98935 | 3098 ft | 15 kts | 41° |
| 2026-04-21 07:35 | 40.11672 | 32.98898 | 3098 ft | 17 kts | 6° |
| 2026-04-21 07:35 | 40.11790 | 32.98989 | 3102 ft | 22 kts | 34° |
| 2026-04-21 07:35 | 40.11910 | 32.99101 | 3104 ft | 20 kts | 36° |
| 2026-04-21 07:36 | 40.12018 | 32.99200 | 3107 ft | 18 kts | 25° |
| 2026-04-21 07:36 | 40.12089 | 32.99277 | 3109 ft | 12 kts | 44° |
| 2026-04-21 07:36 | 40.12146 | 32.99332 | 3110 ft | 9 kts | 34° |
| 2026-04-21 07:36 | 40.12191 | 32.99373 | 3112 ft | 7 kts | 34° |
| 2026-04-21 07:37 | 40.12231 | 32.99410 | 3113 ft | 10 kts | 36° |
| 2026-04-21 07:37 | 40.12318 | 32.99496 | 3115 ft | 21 kts | 39° |
| 2026-04-21 07:37 | 40.12460 | 32.99634 | 3120 ft | 26 kts | 32° |
| 2026-04-21 07:37 | 40.12605 | 32.99767 | 3120 ft | 24 kts | 37° |
| 2026-04-21 07:38 | 40.12734 | 32.99894 | 3126 ft | 22 kts | 37° |
| 2026-04-21 07:38 | 40.12854 | 33.00004 | 3129 ft | 20 kts | 33° |
| 2026-04-21 07:38 | 40.12961 | 33.00104 | 3133 ft | 18 kts | 35° |
| 2026-04-21 07:38 | 40.13053 | 33.00195 | 3136 ft | 15 kts | 39° |
| 2026-04-21 07:39 | 40.13132 | 33.00274 | 3138 ft | 13 kts | 34° |
| 2026-04-21 07:39 | 40.13201 | 33.00332 | 3140 ft | 11 kts | 31° |
| 2026-04-21 07:39 | 40.13264 | 33.00349 | 3142 ft | 8 kts | 359° |
| 2026-04-21 07:39 | 40.13311 | 33.00329 | 3142 ft | 6 kts | 333° |
| 2026-04-21 07:40 | 40.13312 | 33.00329 | 3142 ft | 0 kts | 333° |
| 2026-04-21 07:41 | 40.13344 | 33.00298 | 3143 ft | 14 kts | 310° |
| 2026-04-21 07:41 | 40.13316 | 33.00138 | 3140 ft | 28 kts | 216° |
| 2026-04-21 07:41 | 40.12967 | 32.99804 | 3129 ft | 102 kts | 216° |
| 2026-04-21 07:42 | 40.12182 | 32.99059 | 3256 ft | 160 kts | 216° |
| 2026-04-21 07:42 | 40.11309 | 32.98202 | 4222 ft | 157 kts | 217° |
| 2026-04-21 07:42 | 40.10444 | 32.97309 | 4719 ft | 166 kts | 220° |
| 2026-04-21 07:42 | 40.09454 | 32.96323 | 4982 ft | 192 kts | 218° |
| 2026-04-21 07:43 | 40.08288 | 32.95194 | 5172 ft | 225 kts | 217° |
| 2026-04-21 07:43 | 40.06980 | 32.93938 | 5723 ft | 239 kts | 218° |
| 2026-04-21 07:43 | 40.05632 | 32.92644 | 6521 ft | 242 kts | 219° |
| 2026-04-21 07:43 | 40.04264 | 32.91328 | 7296 ft | 246 kts | 219° |
| 2026-04-21 07:44 | 40.03010 | 32.89802 | 8064 ft | 247 kts | 236° |
| 2026-04-21 07:44 | 40.02297 | 32.87791 | 8852 ft | 246 kts | 261° |
| 2026-04-21 07:44 | 40.02346 | 32.85543 | 9393 ft | 258 kts | 287° |
| 2026-04-21 07:44 | 40.03196 | 32.83422 | 9970 ft | 270 kts | 304° |
| 2026-04-21 07:45 | 40.04343 | 32.81407 | 10422 ft | 286 kts | 307° |
| 2026-04-21 07:45 | 40.05603 | 32.79275 | 10739 ft | 307 kts | 307° |
| 2026-04-21 07:45 | 40.06908 | 32.77051 | 11298 ft | 317 kts | 306° |
| 2026-04-21 07:45 | 40.08252 | 32.74735 | 12030 ft | 322 kts | 306° |
| 2026-04-21 07:46 | 40.09607 | 32.72382 | 12818 ft | 326 kts | 306° |
| 2026-04-21 07:46 | 40.10974 | 32.70000 | 13632 ft | 330 kts | 306° |
| 2026-04-21 07:46 | 40.12354 | 32.67584 | 14364 ft | 333 kts | 306° |
| 2026-04-21 07:46 | 40.13745 | 32.65144 | 15106 ft | 336 kts | 306° |
| 2026-04-21 07:47 | 40.15146 | 32.62682 | 15689 ft | 339 kts | 306° |
| 2026-04-21 07:47 | 40.16552 | 32.60204 | 15949 ft | 340 kts | 306° |
| 2026-04-21 07:47 | 40.17964 | 32.57717 | 15984 ft | 341 kts | 306° |
| 2026-04-21 07:47 | 40.19382 | 32.55217 | 15986 ft | 342 kts | 306° |
| 2026-04-21 07:48 | 40.20901 | 32.52813 | 15977 ft | 343 kts | 312° |
| 2026-04-21 07:48 | 40.22597 | 32.50617 | 15979 ft | 344 kts | 315° |
| 2026-04-21 07:48 | 40.24337 | 32.48470 | 15977 ft | 344 kts | 315° |
| 2026-04-21 07:48 | 40.26082 | 32.46330 | 15980 ft | 344 kts | 315° |
| 2026-04-21 07:49 | 40.27827 | 32.44186 | 15979 ft | 344 kts | 315° |
| 2026-04-21 07:49 | 40.29570 | 32.42039 | 15977 ft | 344 kts | 315° |
| 2026-04-21 07:49 | 40.31311 | 32.39890 | 15977 ft | 344 kts | 315° |
| 2026-04-21 07:49 | 40.33050 | 32.37741 | 15975 ft | 344 kts | 315° |
| 2026-04-21 07:50 | 40.34790 | 32.35589 | 15974 ft | 344 kts | 315° |
| 2026-04-21 07:50 | 40.36529 | 32.33437 | 15967 ft | 344 kts | 315° |
| 2026-04-21 07:50 | 40.38266 | 32.31284 | 15973 ft | 344 kts | 315° |
| 2026-04-21 07:50 | 40.40003 | 32.29130 | 15983 ft | 344 kts | 315° |
| 2026-04-21 07:51 | 40.41743 | 32.26970 | 16059 ft | 346 kts | 315° |
| 2026-04-21 07:51 | 40.43478 | 32.24816 | 16684 ft | 349 kts | 315° |
| 2026-04-21 07:51 | 40.45238 | 32.22624 | 17509 ft | 349 kts | 315° |
| 2026-04-21 07:51 | 40.46855 | 32.20239 | 18266 ft | 351 kts | 306° |
| 2026-04-21 07:52 | 40.48099 | 32.17474 | 18886 ft | 354 kts | 295° |
| 2026-04-21 07:52 | 40.49060 | 32.14489 | 19529 ft | 356 kts | 292° |
| 2026-04-21 07:52 | 40.49955 | 32.11455 | 20201 ft | 357 kts | 291° |
| 2026-04-21 07:52 | 40.50848 | 32.08399 | 20879 ft | 359 kts | 291° |
| 2026-04-21 07:53 | 40.51747 | 32.05327 | 21560 ft | 361 kts | 291° |
| 2026-04-21 07:53 | 40.52653 | 32.02241 | 22232 ft | 363 kts | 291° |
| 2026-04-21 07:53 | 40.53567 | 31.99133 | 22869 ft | 366 kts | 291° |
| 2026-04-21 07:53 | 40.54489 | 31.96003 | 23509 ft | 368 kts | 291° |
| 2026-04-21 07:54 | 40.55414 | 31.92859 | 24042 ft | 370 kts | 291° |
| 2026-04-21 07:54 | 40.56344 | 31.89694 | 24531 ft | 372 kts | 291° |
| 2026-04-21 07:54 | 40.57279 | 31.86512 | 25042 ft | 374 kts | 291° |
| 2026-04-21 07:54 | 40.58210 | 31.83302 | 25549 ft | 377 kts | 290° |
| 2026-04-21 07:55 | 40.59082 | 31.80045 | 26048 ft | 378 kts | 289° |
| 2026-04-21 07:55 | 40.59913 | 31.76748 | 26529 ft | 381 kts | 288° |
| 2026-04-21 07:55 | 40.60727 | 31.73422 | 27014 ft | 383 kts | 288° |
| 2026-04-21 07:55 | 40.61539 | 31.70075 | 27501 ft | 385 kts | 288° |
| 2026-04-21 07:56 | 40.62356 | 31.66709 | 27979 ft | 387 kts | 288° |
| 2026-04-21 07:56 | 40.63181 | 31.63324 | 28458 ft | 389 kts | 288° |
| 2026-04-21 07:56 | 40.64011 | 31.59933 | 28906 ft | 391 kts | 288° |
| 2026-04-21 07:56 | 40.64838 | 31.56566 | 29353 ft | 393 kts | 288° |
| 2026-04-21 07:57 | 40.65681 | 31.53134 | 29791 ft | 395 kts | 288° |
| 2026-04-21 07:57 | 40.66530 | 31.49679 | 29973 ft | 397 kts | 288° |
| 2026-04-21 07:57 | 40.68222 | 31.42766 | 29974 ft | 397 kts | 288° |
| 2026-04-21 07:58 | 40.69910 | 31.35854 | 29980 ft | 396 kts | 288° |
| 2026-04-21 07:58 | 40.71593 | 31.28943 | 29976 ft | 396 kts | 288° |
| 2026-04-21 07:59 | 40.73272 | 31.22033 | 29982 ft | 396 kts | 288° |
| 2026-04-21 07:59 | 40.74948 | 31.15116 | 29985 ft | 396 kts | 288° |
| 2026-04-21 08:00 | 40.76618 | 31.08202 | 29976 ft | 395 kts | 288° |
| 2026-04-21 08:00 | 40.78282 | 31.01286 | 29987 ft | 395 kts | 288° |
| 2026-04-21 08:01 | 40.79943 | 30.94368 | 29986 ft | 395 kts | 288° |
| 2026-04-21 08:02 | 40.82427 | 30.83980 | 29984 ft | 396 kts | 288° |
| 2026-04-21 08:02 | 40.84077 | 30.77051 | 29987 ft | 396 kts | 288° |
| 2026-04-21 08:03 | 40.85726 | 30.70110 | 29983 ft | 396 kts | 288° |
| 2026-04-21 08:03 | 40.87251 | 30.63122 | 29987 ft | 396 kts | 285° |
| 2026-04-21 08:04 | 40.88512 | 30.56040 | 29988 ft | 396 kts | 283° |
| 2026-04-21 08:04 | 40.89725 | 30.48941 | 29989 ft | 396 kts | 284° |
| 2026-04-21 08:05 | 40.90948 | 30.41892 | 29985 ft | 396 kts | 284° |
| 2026-04-21 08:05 | 40.92194 | 30.34800 | 29986 ft | 396 kts | 284° |
| 2026-04-21 08:06 | 40.93439 | 30.27712 | 29988 ft | 396 kts | 284° |
| 2026-04-21 08:06 | 40.94682 | 30.20614 | 29993 ft | 396 kts | 284° |
| 2026-04-21 08:07 | 40.95914 | 30.13540 | 29990 ft | 393 kts | 284° |
| 2026-04-21 08:07 | 40.97136 | 30.06495 | 29988 ft | 392 kts | 284° |
| 2026-04-21 08:08 | 40.98354 | 29.99450 | 29985 ft | 393 kts | 284° |
| 2026-04-21 08:08 | 40.99568 | 29.92401 | 29987 ft | 393 kts | 284° |
| 2026-04-21 08:09 | 41.00775 | 29.85355 | 29990 ft | 391 kts | 284° |
| 2026-04-21 08:09 | 41.01974 | 29.78337 | 29990 ft | 390 kts | 284° |
| 2026-04-21 08:10 | 41.03167 | 29.71326 | 29987 ft | 391 kts | 284° |
| 2026-04-21 08:10 | 41.04348 | 29.64354 | 29991 ft | 390 kts | 284° |
| 2026-04-21 08:11 | 41.05532 | 29.57338 | 29990 ft | 390 kts | 284° |
| 2026-04-21 08:11 | 41.06719 | 29.50283 | 29992 ft | 389 kts | 284° |
| 2026-04-21 08:12 | 41.07883 | 29.43332 | 29992 ft | 389 kts | 284° |
| 2026-04-21 08:12 | 41.09051 | 29.36332 | 29993 ft | 389 kts | 284° |
| 2026-04-21 08:13 | 41.10214 | 29.29331 | 29991 ft | 389 kts | 284° |
| 2026-04-21 08:13 | 41.11372 | 29.22332 | 29992 ft | 388 kts | 284° |
| 2026-04-21 08:14 | 41.11858 | 29.15213 | 29985 ft | 394 kts | 267° |
| 2026-04-21 08:14 | 41.11204 | 29.11656 | 29986 ft | 402 kts | 253° |
| 2026-04-21 08:14 | 41.09940 | 29.08311 | 29988 ft | 409 kts | 246° |
| 2026-04-21 08:15 | 41.06979 | 29.01845 | 29993 ft | 411 kts | 244° |
| 2026-04-21 08:15 | 41.03975 | 28.95401 | 29979 ft | 411 kts | 244° |
| 2026-04-21 08:16 | 41.00982 | 28.88964 | 29995 ft | 410 kts | 244° |
| 2026-04-21 08:16 | 40.97989 | 28.82530 | 29993 ft | 410 kts | 244° |
| 2026-04-21 08:17 | 40.94991 | 28.76094 | 29991 ft | 410 kts | 244° |
| 2026-04-21 08:17 | 40.91995 | 28.69675 | 29992 ft | 410 kts | 244° |
| 2026-04-21 08:18 | 40.89015 | 28.63304 | 29970 ft | 410 kts | 244° |
| 2026-04-21 08:18 | 40.86006 | 28.56883 | 29988 ft | 412 kts | 244° |
| 2026-04-21 08:19 | 40.82985 | 28.50452 | 29984 ft | 412 kts | 244° |
| 2026-04-21 08:19 | 40.79958 | 28.44022 | 29981 ft | 412 kts | 244° |
| 2026-04-21 08:20 | 40.76928 | 28.37597 | 29957 ft | 412 kts | 244° |
| 2026-04-21 08:20 | 40.73890 | 28.31170 | 29984 ft | 414 kts | 244° |
| 2026-04-21 08:21 | 40.70843 | 28.24736 | 29978 ft | 414 kts | 244° |
| 2026-04-21 08:21 | 40.67790 | 28.18305 | 29979 ft | 414 kts | 244° |
| 2026-04-21 08:22 | 40.64736 | 28.11883 | 29978 ft | 414 kts | 244° |
| 2026-04-21 08:22 | 40.61673 | 28.05455 | 29974 ft | 415 kts | 243° |
| 2026-04-21 08:23 | 40.58607 | 27.99037 | 29977 ft | 414 kts | 243° |
| 2026-04-21 08:23 | 40.55540 | 27.92629 | 29848 ft | 413 kts | 243° |
| 2026-04-21 08:23 | 40.54011 | 27.89439 | 29369 ft | 412 kts | 243° |
| 2026-04-21 08:24 | 40.52491 | 27.86275 | 28863 ft | 406 kts | 243° |
| 2026-04-21 08:24 | 40.50992 | 27.83158 | 28357 ft | 401 kts | 243° |
| 2026-04-21 08:24 | 40.49512 | 27.80083 | 27872 ft | 396 kts | 243° |
| 2026-04-21 08:24 | 40.48043 | 27.77029 | 27398 ft | 394 kts | 243° |
| 2026-04-21 08:25 | 40.46584 | 27.73996 | 26920 ft | 392 kts | 243° |
| 2026-04-21 08:25 | 40.45148 | 27.71017 | 26466 ft | 390 kts | 243° |
| 2026-04-21 08:25 | 40.43700 | 27.68018 | 26015 ft | 388 kts | 243° |
| 2026-04-21 08:25 | 40.42260 | 27.65038 | 25566 ft | 385 kts | 243° |
| 2026-04-21 08:26 | 40.40828 | 27.62076 | 25122 ft | 383 kts | 243° |
| 2026-04-21 08:26 | 40.39405 | 27.59136 | 24687 ft | 381 kts | 242° |
| 2026-04-21 08:26 | 40.37986 | 27.56208 | 24241 ft | 380 kts | 242° |
| 2026-04-21 08:26 | 40.36571 | 27.53288 | 23809 ft | 379 kts | 242° |
| 2026-04-21 08:27 | 40.35157 | 27.50375 | 23374 ft | 377 kts | 242° |
| 2026-04-21 08:27 | 40.33750 | 27.47479 | 22882 ft | 376 kts | 242° |
| 2026-04-21 08:27 | 40.32350 | 27.44600 | 22393 ft | 373 kts | 242° |
| 2026-04-21 08:27 | 40.30961 | 27.41747 | 21915 ft | 370 kts | 241° |
| 2026-04-21 08:28 | 40.29634 | 27.38881 | 21447 ft | 365 kts | 246° |
| 2026-04-21 08:28 | 40.28729 | 27.35822 | 20984 ft | 358 kts | 259° |
| 2026-04-21 08:28 | 40.28421 | 27.32620 | 20531 ft | 352 kts | 269° |
| 2026-04-21 08:28 | 40.28381 | 27.29425 | 20082 ft | 350 kts | 271° |
| 2026-04-21 08:29 | 40.28388 | 27.26242 | 19636 ft | 349 kts | 272° |
| 2026-04-21 08:29 | 40.28396 | 27.23073 | 19181 ft | 347 kts | 271° |
| 2026-04-21 08:29 | 40.28399 | 27.19911 | 18759 ft | 347 kts | 271° |
| 2026-04-21 08:29 | 40.28397 | 27.16755 | 18338 ft | 346 kts | 271° |
| 2026-04-21 08:30 | 40.28391 | 27.13611 | 17862 ft | 344 kts | 271° |
| 2026-04-21 08:30 | 40.28384 | 27.10493 | 17380 ft | 341 kts | 271° |
| 2026-04-21 08:30 | 40.28374 | 27.07403 | 16911 ft | 338 kts | 271° |
| 2026-04-21 08:30 | 40.28364 | 27.04335 | 16449 ft | 336 kts | 271° |
| 2026-04-21 08:31 | 40.28353 | 27.01283 | 15989 ft | 334 kts | 271° |
| 2026-04-21 08:31 | 40.28340 | 26.98248 | 15538 ft | 332 kts | 271° |
| 2026-04-21 08:31 | 40.28328 | 26.95269 | 15099 ft | 330 kts | 271° |
| 2026-04-21 08:31 | 40.28314 | 26.92269 | 14661 ft | 329 kts | 271° |
| 2026-04-21 08:32 | 40.28300 | 26.89278 | 14226 ft | 327 kts | 270° |
| 2026-04-21 08:32 | 40.28290 | 26.87269 | 13939 ft | 326 kts | 270° |
| 2026-04-21 08:32 | 40.28270 | 26.83351 | 13324 ft | 324 kts | 271° |
| 2026-04-21 08:32 | 40.28255 | 26.80416 | 12848 ft | 321 kts | 270° |
| 2026-04-21 08:33 | 40.28244 | 26.78445 | 12534 ft | 319 kts | 270° |
| 2026-04-21 08:33 | 40.28228 | 26.75552 | 12073 ft | 317 kts | 270° |
| 2026-04-21 08:33 | 40.28212 | 26.72670 | 11614 ft | 315 kts | 270° |
| 2026-04-21 08:33 | 40.28194 | 26.69813 | 11163 ft | 312 kts | 270° |
| 2026-04-21 08:34 | 40.28176 | 26.67001 | 10718 ft | 304 kts | 270° |
| 2026-04-21 08:34 | 40.28159 | 26.64287 | 10302 ft | 292 kts | 269° |
| 2026-04-21 08:34 | 40.28142 | 26.61734 | 10101 ft | 275 kts | 269° |
| 2026-04-21 08:34 | 40.28126 | 26.59269 | 10089 ft | 263 kts | 269° |
| 2026-04-21 08:35 | 40.28110 | 26.56871 | 10097 ft | 263 kts | 269° |
| 2026-04-21 08:35 | 40.28092 | 26.54506 | 10012 ft | 264 kts | 269° |
| 2026-04-21 08:35 | 40.28073 | 26.52109 | 9759 ft | 263 kts | 269° |
| 2026-04-21 08:35 | 40.28054 | 26.49715 | 9494 ft | 263 kts | 269° |
| 2026-04-21 08:36 | 40.28034 | 26.47324 | 9235 ft | 262 kts | 269° |
| 2026-04-21 08:36 | 40.28015 | 26.44937 | 8945 ft | 263 kts | 269° |
| 2026-04-21 08:36 | 40.27987 | 26.42542 | 8670 ft | 263 kts | 267° |
| 2026-04-21 08:36 | 40.27734 | 26.40183 | 8386 ft | 261 kts | 255° |
| 2026-04-21 08:37 | 40.27009 | 26.38015 | 8103 ft | 260 kts | 238° |
| 2026-04-21 08:37 | 40.25841 | 26.36211 | 7830 ft | 261 kts | 225° |
| 2026-04-21 08:37 | 40.24492 | 26.34622 | 7556 ft | 261 kts | 222° |
| 2026-04-21 08:37 | 40.23114 | 26.33077 | 7277 ft | 261 kts | 221° |
| 2026-04-21 08:38 | 40.21737 | 26.31534 | 7009 ft | 260 kts | 222° |
| 2026-04-21 08:38 | 40.20368 | 26.29993 | 6743 ft | 259 kts | 222° |
| 2026-04-21 08:38 | 40.19004 | 26.28455 | 6470 ft | 258 kts | 221° |
| 2026-04-21 08:38 | 40.17645 | 26.26920 | 6207 ft | 258 kts | 221° |
| 2026-04-21 08:39 | 40.16292 | 26.25387 | 5933 ft | 257 kts | 221° |
| 2026-04-21 08:39 | 40.14944 | 26.23858 | 5660 ft | 256 kts | 221° |
| 2026-04-21 08:39 | 40.13603 | 26.22340 | 5370 ft | 255 kts | 221° |
| 2026-04-21 08:39 | 40.12266 | 26.20827 | 5091 ft | 254 kts | 221° |
| 2026-04-21 08:40 | 40.10933 | 26.19317 | 4818 ft | 253 kts | 221° |
| 2026-04-21 08:40 | 40.09602 | 26.17811 | 4537 ft | 253 kts | 221° |
| 2026-04-21 08:40 | 40.08275 | 26.16310 | 4257 ft | 252 kts | 221° |
| 2026-04-21 08:40 | 40.06858 | 26.14983 | 3978 ft | 251 kts | 207° |
| 2026-04-21 08:41 | 40.05198 | 26.14330 | 3703 ft | 250 kts | 185° |
| 2026-04-21 08:41 | 40.03499 | 26.14585 | 3436 ft | 245 kts | 161° |
| 2026-04-21 08:41 | 40.02058 | 26.15658 | 3161 ft | 235 kts | 140° |
| 2026-04-21 08:41 | 40.00948 | 26.17132 | 2902 ft | 226 kts | 133° |
| 2026-04-21 08:42 | 39.99958 | 26.18632 | 2804 ft | 210 kts | 131° |
| 2026-04-21 08:42 | 39.99047 | 26.20071 | 2811 ft | 205 kts | 127° |
| 2026-04-21 08:42 | 39.98384 | 26.21714 | 2800 ft | 207 kts | 108° |
| 2026-04-21 08:42 | 39.98286 | 26.23564 | 2816 ft | 203 kts | 78° |
| 2026-04-21 08:43 | 39.98822 | 26.25174 | 2822 ft | 187 kts | 55° |
| 2026-04-21 08:43 | 39.99679 | 26.26349 | 2813 ft | 171 kts | 42° |
| 2026-04-21 08:43 | 40.00560 | 26.27347 | 2802 ft | 165 kts | 42° |
| 2026-04-21 08:43 | 40.01425 | 26.28344 | 2814 ft | 166 kts | 42° |
| 2026-04-21 08:44 | 40.02269 | 26.29326 | 2803 ft | 157 kts | 42° |
| 2026-04-21 08:44 | 40.03058 | 26.30252 | 2596 ft | 149 kts | 42° |
| 2026-04-21 08:44 | 40.03829 | 26.31147 | 2381 ft | 148 kts | 41° |
| 2026-04-21 08:44 | 40.04602 | 26.32042 | 2164 ft | 149 kts | 42° |
| 2026-04-21 08:45 | 40.05380 | 26.32945 | 1974 ft | 149 kts | 42° |
| 2026-04-21 08:45 | 40.06152 | 26.33841 | 1775 ft | 148 kts | 42° |
| 2026-04-21 08:45 | 40.06912 | 26.34724 | 1571 ft | 145 kts | 42° |
| 2026-04-21 08:45 | 40.07662 | 26.35594 | 1371 ft | 142 kts | 41° |
| 2026-04-21 08:46 | 40.08380 | 26.36429 | 1187 ft | 136 kts | 41° |
| 2026-04-21 08:46 | 40.09081 | 26.37242 | 1009 ft | 133 kts | 41° |
| 2026-04-21 08:46 | 40.09761 | 26.38033 | 832 ft | 129 kts | 41° |
| 2026-04-21 08:46 | 40.10426 | 26.38805 | 665 ft | 127 kts | 41° |
| 2026-04-21 08:47 | 40.11087 | 26.39573 | 500 ft | 127 kts | 41° |
| 2026-04-21 08:47 | 40.11739 | 26.40347 | 321 ft | 126 kts | 43° |
| 2026-04-21 08:47 | 40.12367 | 26.41109 | 146 ft | 124 kts | 40° |
| 2026-04-21 08:47 | 40.13023 | 26.41845 | 28 ft | 123 kts | 40° |
| 2026-04-21 08:48 | 40.13601 | 26.42496 | 29 ft | 80 kts | 41° |
| 2026-04-21 08:48 | 40.13860 | 26.42779 | 32 ft | 17 kts | 356° |
| 2026-04-21 08:48 | 40.13877 | 26.42751 | 32 ft | 0 kts | 297° |
| 2026-04-21 08:49 | 40.13883 | 26.42740 | 32 ft | 4 kts | 302° |
| 2026-04-21 08:49 | 40.13888 | 26.42729 | 32 ft | 0 kts | 304° |
| 2026-04-21 08:49 | 40.13915 | 26.42683 | 32 ft | 18 kts | 309° |
| 2026-04-21 08:49 | 40.13959 | 26.42585 | 32 ft | 0 kts | 313° |